createdAt,value
2022-08-18T00:01:05.692Z,101278.03
2022-08-18T00:03:57.286Z,101278.94
2022-08-18T00:06:19.927Z,101280.78
2022-08-18T00:08:46.423Z,101283.47
2022-08-18T00:11:12.861Z,101284.41
2022-08-18T00:13:39.345Z,101280.88
2022-08-18T00:16:06.076Z,101276.41
2022-08-18T00:18:32.454Z,101273.59
2022-08-18T00:20:59.039Z,101274.38
2022-08-18T00:23:25.712Z,101266.38
2022-08-18T00:25:52.250Z,101269.91
2022-08-18T00:28:19.335Z,101265.53
2022-08-18T00:30:50.236Z,101256.75
2022-08-18T00:33:20.538Z,101258.78
2022-08-18T00:35:47.002Z,101252.81
2022-08-18T00:38:24.713Z,101262.81
2022-08-18T00:40:54.362Z,101272.66
2022-08-18T00:43:36.009Z,101270.06
2022-08-18T00:46:02.966Z,101268.34
2022-08-18T00:48:31.704Z,101272.72
2022-08-18T00:51:08.220Z,101269.13
2022-08-18T00:53:50.989Z,101262.94
2022-08-18T00:56:28.183Z,101261.25
2022-08-18T00:59:12.450Z,101264.06
2022-08-18T01:01:41.417Z,101268.56
2022-08-18T01:04:22.880Z,101268.59
2022-08-18T01:06:54.558Z,101274.00
2022-08-18T01:09:21.030Z,101275.78
2022-08-18T01:11:47.406Z,101280.38
2022-08-18T01:14:23.927Z,101284.00
2022-08-18T01:17:10.440Z,101285.75
2022-08-18T01:19:57.115Z,101281.31
2022-08-18T01:22:36.399Z,101287.66
2022-08-18T01:25:26.321Z,101285.91
2022-08-18T01:27:54.155Z,101288.53
2022-08-18T01:30:25.345Z,101291.25
2022-08-18T01:32:56.076Z,101293.06
2022-08-18T01:35:25.843Z,101289.56
2022-08-18T01:37:53.688Z,101289.66
2022-08-18T01:41:22.759Z,101289.69
2022-08-18T01:43:10.564Z,101289.72
2022-08-18T01:45:37.323Z,101286.13
2022-08-18T01:48:04.839Z,101292.41
2022-08-18T01:50:34.238Z,101297.75
2022-08-18T01:53:02.207Z,101296.91
2022-08-18T01:55:28.657Z,101296.03
2022-08-18T01:57:57.207Z,101288.97
2022-08-18T02:00:24.969Z,101286.38
2022-08-18T02:02:58.234Z,101279.34
2022-08-18T02:05:36.440Z,101279.41
2022-08-18T02:08:06.406Z,101278.63
2022-08-18T02:10:33.055Z,101294.56
2022-08-18T02:12:59.492Z,101296.44
2022-08-18T02:15:26.176Z,101294.75
2022-08-18T02:17:52.809Z,101298.25
2022-08-18T02:20:20.192Z,101302.72
2022-08-18T02:22:49.284Z,101303.59
2022-08-18T02:25:17.465Z,101309.00
2022-08-18T02:27:45.833Z,101313.44
2022-08-18T02:30:16.241Z,101312.56
2022-08-18T02:32:43.048Z,101308.06
2022-08-18T02:35:11.894Z,101304.38
2022-08-18T02:37:42.185Z,101301.69
2022-08-18T02:40:11.209Z,101298.09
2022-08-18T02:42:42.505Z,101301.63
2022-08-18T02:45:09.777Z,101294.47
2022-08-18T02:47:36.294Z,101295.25
2022-08-18T02:50:02.901Z,101307.66
2022-08-18T02:52:32.651Z,101312.06
2022-08-18T02:55:03.378Z,101315.66
2022-08-18T02:57:31.158Z,101313.00
2022-08-18T02:59:57.610Z,101315.63
2022-08-18T03:02:26.877Z,101321.78
2022-08-18T03:04:53.576Z,101314.72
2022-08-18T03:07:19.938Z,101318.25
2022-08-18T03:09:46.730Z,101323.56
2022-08-18T03:12:13.548Z,101322.63
2022-08-18T03:14:40.131Z,101319.03
2022-08-18T03:17:08.877Z,101324.34
2022-08-18T03:19:36.010Z,101327.88
2022-08-18T03:22:03.583Z,101333.28
2022-08-18T03:24:32.203Z,101327.09
2022-08-18T03:27:00.151Z,101326.31
2022-08-18T03:29:31.706Z,101323.63
2022-08-18T03:31:59.361Z,101328.06
2022-08-18T03:34:25.994Z,101319.25
2022-08-18T03:36:52.729Z,101328.13
2022-08-18T03:39:20.534Z,101330.78
2022-08-18T03:41:59.626Z,101323.66
2022-08-18T03:44:34.040Z,101325.47
2022-08-18T03:47:03.709Z,101328.06
2022-08-18T03:49:33.563Z,101329.84
2022-08-18T03:52:02.052Z,101329.88
2022-08-18T03:54:32.115Z,101337.84
2022-08-18T03:57:00.122Z,101336.97
2022-08-18T03:59:27.274Z,101335.19
2022-08-18T04:01:55.430Z,101342.25
2022-08-18T04:04:25.079Z,101328.06
2022-08-18T04:06:55.697Z,101332.53
2022-08-18T04:09:28.175Z,101330.75
2022-08-18T04:11:55.070Z,101340.59
2022-08-18T04:14:24.923Z,101327.28
2022-08-18T04:16:52.376Z,101330.81
2022-08-18T04:19:26.231Z,101339.69
2022-08-18T04:21:54.491Z,101317.56
2022-08-18T04:24:21.620Z,101319.44
2022-08-18T04:26:50.344Z,101325.63
2022-08-18T04:29:21.412Z,101322.97
2022-08-18T04:31:49.305Z,101322.97
2022-08-18T04:34:20.537Z,101316.75
2022-08-18T04:36:47.806Z,101327.44
2022-08-18T04:39:14.252Z,101331.06
2022-08-18T04:41:44.175Z,101322.25
2022-08-18T04:44:12.755Z,101319.59
2022-08-18T04:46:42.975Z,101317.88
2022-08-18T04:49:11.884Z,101316.94
2022-08-18T04:52:36.139Z,101321.50
2022-08-18T04:54:28.601Z,101320.63
2022-08-18T04:56:55.171Z,101326.84
2022-08-18T04:59:21.650Z,101329.56
2022-08-18T05:01:48.345Z,101331.41
2022-08-18T05:04:16.842Z,101331.34
2022-08-18T05:06:45.141Z,101333.97
2022-08-18T05:09:16.701Z,101342.00
2022-08-18T05:11:50.888Z,101343.78
2022-08-18T05:14:18.344Z,101342.84
2022-08-18T05:16:48.556Z,101342.78
2022-08-18T05:19:19.763Z,101350.75
2022-08-18T05:21:52.305Z,101346.22
2022-08-18T05:24:21.349Z,101341.78
2022-08-18T05:26:49.019Z,101351.47
2022-08-18T05:29:19.688Z,101352.31
2022-08-18T05:31:48.360Z,101342.53
2022-08-18T05:34:15.972Z,101345.13
2022-08-18T05:37:01.100Z,101340.44
2022-08-18T05:39:37.136Z,101344.50
2022-08-18T05:42:08.405Z,101332.47
2022-08-18T05:44:42.999Z,101337.41
2022-08-18T05:47:30.650Z,101337.94
2022-08-18T05:50:02.537Z,101334.91
2022-08-18T05:52:32.854Z,101339.31
2022-08-18T05:55:23.285Z,101337.63
2022-08-18T05:58:00.640Z,101338.59
2022-08-18T06:00:28.890Z,101340.19
2022-08-18T06:03:08.874Z,101336.16
2022-08-18T06:05:45.019Z,101341.53
2022-08-18T06:08:13.981Z,101339.09
2022-08-18T06:10:46.354Z,101336.66
2022-08-18T06:13:13.276Z,101327.09
2022-08-18T06:16:05.959Z,101329.69
2022-08-18T06:18:43.979Z,101328.22
2022-08-18T06:21:48.242Z,101331.41
2022-08-18T06:24:27.620Z,101327.81
2022-08-18T06:27:05.966Z,101320.91
2022-08-18T06:29:51.131Z,101317.59
2022-08-18T06:32:48.746Z,101321.63
2022-08-18T06:35:34.177Z,101333.13
2022-08-18T06:38:38.518Z,101331.50
2022-08-18T06:41:07.841Z,101331.75
2022-08-18T06:43:37.243Z,101334.53
2022-08-18T06:46:12.350Z,101338.34
2022-08-18T06:48:59.769Z,101338.69
2022-08-18T06:51:28.334Z,101338.47
2022-08-18T06:53:59.079Z,101336.19
2022-08-18T06:56:40.421Z,101339.09
2022-08-18T06:59:36.495Z,101351.88
2022-08-18T07:02:20.979Z,101350.56
2022-08-18T07:05:06.949Z,101346.22
2022-08-18T07:07:41.603Z,101346.19
2022-08-18T07:10:34.408Z,101348.28
2022-08-18T07:13:13.423Z,101347.72
2022-08-18T07:15:40.782Z,101350.47
2022-08-18T07:18:09.413Z,101346.75
2022-08-18T07:21:02.326Z,101342.56
2022-08-18T07:23:38.510Z,101361.06
2022-08-18T07:26:10.560Z,101365.78
2022-08-18T07:28:46.574Z,101365.09
2022-08-18T07:31:19.867Z,101364.63
2022-08-18T07:34:25.483Z,101372.50
2022-08-18T07:37:03.028Z,101363.03
2022-08-18T07:39:52.858Z,101367.13
2022-08-18T07:43:00.763Z,101374.09
2022-08-18T07:45:33.069Z,101382.44
2022-08-18T07:48:15.769Z,101385.66
2022-08-18T07:51:03.143Z,101386.72
2022-08-18T07:53:56.897Z,101388.50
2022-08-18T07:56:56.029Z,101387.44
2022-08-18T07:59:45.354Z,101387.19
2022-08-18T08:02:50.538Z,101385.66
2022-08-18T08:05:36.605Z,101392.13
2022-08-18T08:08:10.497Z,101392.44
2022-08-18T08:11:04.284Z,101399.41
2022-08-18T08:13:56.098Z,101396.16
2022-08-18T08:16:36.022Z,101394.63
2022-08-18T08:19:12.690Z,101392.63
2022-08-18T08:21:53.380Z,101383.16
2022-08-18T08:24:58.071Z,101383.75
2022-08-18T08:27:37.127Z,101390.22
2022-08-18T08:30:12.439Z,101395.75
2022-08-18T08:32:57.164Z,101394.50
2022-08-18T08:35:49.177Z,101392.47
2022-08-18T08:38:42.466Z,101386.34
2022-08-18T08:41:22.202Z,101389.06
2022-08-18T08:44:00.399Z,101377.56
2022-08-18T08:46:31.292Z,101383.53
2022-08-18T08:49:12.911Z,101381.06
2022-08-18T08:51:49.692Z,101380.09
2022-08-18T08:54:23.309Z,101378.69
2022-08-18T08:56:52.609Z,101373.75
2022-08-18T08:59:21.883Z,101381.25
2022-08-18T09:02:08.718Z,101373.41
2022-08-18T09:04:55.778Z,101373.84
2022-08-18T09:07:41.798Z,101374.75
2022-08-18T09:10:41.891Z,101378.06
2022-08-18T09:13:29.560Z,101390.88
2022-08-18T09:16:27.700Z,101381.25
2022-08-18T09:19:21.752Z,101395.34
2022-08-18T09:22:00.848Z,101399.66
2022-08-18T09:24:41.204Z,101403.75
2022-08-18T09:27:22.841Z,101403.03
2022-08-18T09:30:01.182Z,101399.50
2022-08-18T09:32:28.651Z,101391.69
2022-08-18T09:35:25.784Z,101396.47
2022-08-18T09:38:34.788Z,101396.16
2022-08-18T09:41:35.481Z,101399.31
2022-08-18T09:44:17.916Z,101398.19
2022-08-18T09:46:54.522Z,101400.63
2022-08-18T09:49:22.241Z,101405.47
2022-08-18T09:51:51.289Z,101400.16
2022-08-18T09:54:21.651Z,101406.44
2022-08-18T09:56:54.271Z,101398.91
2022-08-18T09:59:34.394Z,101398.31
2022-08-18T10:02:06.477Z,101389.44
2022-08-18T10:04:52.198Z,101394.91
2022-08-18T10:11:00.958Z,101386.56
2022-08-18T10:14:01.086Z,101382.63
2022-08-18T10:17:13.462Z,101365.81
2022-08-18T10:19:50.374Z,101374.28
2022-08-18T10:22:43.326Z,101370.09
2022-08-18T10:25:22.477Z,101369.03
2022-08-18T10:27:56.852Z,101376.47
2022-08-18T10:30:34.474Z,101377.47
2022-08-18T10:33:17.746Z,101379.84
2022-08-18T10:36:03.254Z,101373.16
2022-08-18T10:38:41.179Z,101384.84
2022-08-18T10:41:20.610Z,101378.19
2022-08-18T10:43:58.153Z,101380.81
2022-08-18T10:46:30.827Z,101377.16
2022-08-18T10:49:12.411Z,101383.06
2022-08-18T10:54:54.496Z,101381.66
2022-08-18T10:57:43.419Z,101381.66
2022-08-18T11:00:19.702Z,101378.88
2022-08-18T11:06:01.586Z,101379.94
2022-08-18T11:08:31.632Z,101381.16
2022-08-18T11:11:39.045Z,101379.06
2022-08-18T11:14:09.761Z,101383.78
2022-08-18T11:16:44.153Z,101378.63
2022-08-18T11:19:16.711Z,101367.09
2022-08-18T11:24:35.630Z,101373.47
2022-08-18T11:27:09.671Z,101373.84
2022-08-18T11:29:43.179Z,101363.22
2022-08-18T11:32:20.019Z,101368.00
2022-08-18T11:34:53.470Z,101366.22
2022-08-18T11:37:49.578Z,101371.13
2022-08-18T11:43:21.418Z,101364.16
2022-08-18T11:46:12.505Z,101366.94
2022-08-18T11:48:52.518Z,101358.56
2022-08-18T11:51:27.018Z,101349.66
2022-08-18T11:57:38.944Z,101363.56
2022-08-18T12:00:47.340Z,101357.22
2022-08-18T12:03:36.764Z,101349.38
2022-08-18T12:06:30.529Z,101341.06
2022-08-18T12:09:24.387Z,101349.19
2022-08-18T12:12:28.156Z,101341.69
2022-08-18T12:15:09.064Z,101343.44
2022-08-18T12:17:41.794Z,101342.31
2022-08-18T12:20:11.864Z,101341.88
2022-08-18T12:22:41.337Z,101335.63
2022-08-18T12:25:13.664Z,101336.16
2022-08-18T12:27:40.745Z,101323.94
2022-08-18T12:30:16.813Z,101325.66
2022-08-18T12:32:50.290Z,101329.16
2022-08-18T12:38:13.746Z,101336.59
2022-08-18T12:40:41.057Z,101338.94
2022-08-18T12:43:07.714Z,101334.25
2022-08-18T12:45:34.465Z,101336.47
2022-08-18T12:48:07.594Z,101333.22
2022-08-18T12:50:50.125Z,101321.38
2022-08-18T12:53:30.132Z,101326.78
2022-08-18T12:56:19.818Z,101326.34
2022-08-18T12:58:46.956Z,101322.34
2022-08-18T13:01:18.989Z,101335.69
2022-08-18T13:03:52.618Z,101332.97
2022-08-18T13:06:37.678Z,101336.34
2022-08-18T13:09:16.354Z,101334.44
2022-08-18T13:11:57.282Z,101342.28
2022-08-18T13:14:26.796Z,101342.91
2022-08-18T13:16:58.269Z,101331.94
2022-08-18T13:19:25.842Z,101330.09
2022-08-18T13:22:00.533Z,101340.22
2022-08-18T13:24:27.410Z,101329.41
2022-08-18T13:26:55.673Z,101342.13
2022-08-18T13:29:22.214Z,101335.50
2022-08-18T13:31:56.023Z,101344.13
2022-08-18T13:34:30.080Z,101346.34
2022-08-18T13:36:57.241Z,101347.28
2022-08-18T13:39:25.024Z,101364.19
2022-08-18T13:42:01.476Z,101366.91
2022-08-18T13:44:52.911Z,101366.09
2022-08-18T13:47:20.497Z,101370.47
2022-08-18T13:49:52.658Z,101372.22
2022-08-18T13:52:34.808Z,101373.09
2022-08-18T13:55:08.272Z,101368.69
2022-08-18T13:57:36.564Z,101361.75
2022-08-18T14:00:06.398Z,101369.75
2022-08-18T14:02:40.044Z,101369.91
2022-08-18T14:05:09.201Z,101371.66
2022-08-18T14:07:37.680Z,101375.47
2022-08-18T14:10:08.161Z,101376.69
2022-08-18T14:12:41.148Z,101378.41
2022-08-18T14:15:11.223Z,101374.22
2022-08-18T14:17:39.307Z,101363.53
2022-08-18T14:20:27.626Z,101356.38
2022-08-18T14:23:24.515Z,101354.88
2022-08-18T14:26:16.834Z,101360.47
2022-08-18T14:28:43.823Z,101353.34
2022-08-18T14:31:14.184Z,101358.72
2022-08-18T14:33:50.390Z,101363.31
2022-08-18T14:36:20.218Z,101358.88
2022-08-18T14:38:57.535Z,101364.59
2022-08-18T14:41:25.581Z,101362.94
2022-08-18T14:44:12.043Z,101363.16
2022-08-18T14:46:40.923Z,101365.34
2022-08-18T14:49:07.956Z,101365.56
2022-08-18T14:51:34.425Z,101355.41
2022-08-18T14:54:02.129Z,101359.38
2022-08-18T14:56:29.564Z,101357.00
2022-08-18T14:58:56.319Z,101359.34
2022-08-18T15:01:24.571Z,101358.88
2022-08-18T15:03:54.495Z,101345.25
2022-08-18T15:06:23.063Z,101332.97
2022-08-18T15:08:54.408Z,101334.84
2022-08-18T15:11:23.967Z,101337.81
2022-08-18T15:13:51.556Z,101335.88
2022-08-18T15:16:26.913Z,101332.97
2022-08-18T15:18:58.207Z,101330.25
2022-08-18T15:21:43.432Z,101332.78
2022-08-18T15:24:28.345Z,101321.00
2022-08-18T15:26:58.195Z,101333.03
2022-08-18T15:29:30.375Z,101330.81
2022-08-18T15:32:02.375Z,101319.97
2022-08-18T15:34:33.361Z,101313.94
2022-08-18T15:37:14.051Z,101317.22
2022-08-18T15:39:40.974Z,101320.06
2022-08-18T15:42:10.797Z,101320.22
2022-08-18T15:44:38.193Z,101314.31
2022-08-18T15:47:05.198Z,101332.56
2022-08-18T15:49:33.826Z,101319.41
2022-08-18T15:52:00.579Z,101336.34
2022-08-18T15:54:29.392Z,101328.28
2022-08-18T15:56:58.527Z,101319.22
2022-08-18T15:59:34.112Z,101322.88
2022-08-18T16:02:11.623Z,101313.09
2022-08-18T16:04:40.964Z,101313.31
2022-08-18T16:07:07.749Z,101314.81
2022-08-18T16:09:36.799Z,101313.78
2022-08-18T16:12:07.972Z,101318.38
2022-08-18T16:14:36.981Z,101317.28
2022-08-18T16:17:13.136Z,101308.41
2022-08-18T16:19:44.444Z,101318.53
2022-08-18T16:22:11.229Z,101312.34
2022-08-18T16:24:37.632Z,101312.44
2022-08-18T16:27:06.520Z,101301.78
2022-08-18T16:29:33.469Z,101314.50
2022-08-18T16:32:01.386Z,101320.06
2022-08-18T16:34:31.004Z,101320.13
2022-08-18T16:36:58.303Z,101311.19
2022-08-18T16:39:24.664Z,101318.47
2022-08-18T16:41:51.258Z,101320.28
2022-08-18T16:44:17.774Z,101323.06
2022-08-18T16:46:44.499Z,101316.00
2022-08-18T16:49:10.981Z,101312.47
2022-08-18T16:51:37.865Z,101311.41
2022-08-18T16:54:05.423Z,101311.28
2022-08-18T16:56:36.008Z,101313.97
2022-08-18T16:59:21.433Z,101310.25
2022-08-18T17:02:09.930Z,101306.59
2022-08-18T17:04:36.768Z,101305.94
2022-08-18T17:07:05.853Z,101307.06
2022-08-18T17:09:36.230Z,101305.94
2022-08-18T17:12:03.100Z,101297.56
2022-08-18T17:14:31.379Z,101300.34
2022-08-18T17:16:58.607Z,101300.34
2022-08-18T17:19:34.580Z,101295.59
2022-08-18T17:22:02.364Z,101292.75
2022-08-18T17:24:31.721Z,101303.41
2022-08-18T17:27:26.657Z,101297.78
2022-08-18T17:30:03.429Z,101300.47
2022-08-18T17:35:20.608Z,101297.69
2022-08-18T17:38:00.391Z,101295.09
2022-08-18T17:40:50.078Z,101294.28
2022-08-18T17:43:28.951Z,101301.56
2022-08-18T17:46:04.368Z,101298.97
2022-08-18T17:48:48.247Z,101299.22
2022-08-18T17:51:35.040Z,101303.97
2022-08-18T17:54:09.727Z,101307.84
2022-08-18T17:56:44.478Z,101304.44
2022-08-18T17:59:45.959Z,101312.69
2022-08-18T18:02:29.347Z,101306.56
2022-08-18T18:05:01.777Z,101305.78
2022-08-18T18:07:39.159Z,101310.25
2022-08-18T18:10:11.859Z,101306.00
2022-08-18T18:12:38.913Z,101307.88
2022-08-18T18:15:09.588Z,101303.75
2022-08-18T18:17:38.989Z,101304.03
2022-08-18T18:20:16.037Z,101307.91
2022-08-18T18:22:44.393Z,101306.41
2022-08-18T18:25:14.998Z,101316.44
2022-08-18T18:27:48.506Z,101311.44
2022-08-18T18:30:16.429Z,101309.78
2022-08-18T18:33:09.205Z,101310.88
2022-08-18T18:35:54.408Z,101304.09
2022-08-18T18:38:49.164Z,101310.56
2022-08-18T18:41:29.109Z,101307.44
2022-08-18T18:44:06.286Z,101303.34
2022-08-18T18:47:01.608Z,101307.25
2022-08-18T18:49:44.329Z,101306.72
2022-08-18T18:52:43.418Z,101306.00
2022-08-18T18:55:30.837Z,101306.38
2022-08-18T18:58:17.036Z,101318.22
2022-08-18T19:00:53.687Z,101307.81
2022-08-18T19:03:30.761Z,101316.19
2022-08-18T19:06:27.087Z,101314.56
2022-08-18T19:09:32.273Z,101309.47
2022-08-18T19:12:37.445Z,101312.44
2022-08-18T19:15:10.579Z,101313.50
2022-08-18T19:18:30.364Z,101302.88
2022-08-18T19:22:02.285Z,101310.41
2022-08-18T19:23:55.204Z,101320.63
2022-08-18T19:26:33.442Z,101317.22
2022-08-18T19:29:13.291Z,101319.22
2022-08-18T19:32:04.694Z,101313.31
2022-08-18T19:34:37.332Z,101313.50
2022-08-18T19:37:44.782Z,101312.81
2022-08-18T19:40:18.873Z,101306.88
2022-08-18T19:43:03.715Z,101305.44
2022-08-18T19:45:53.888Z,101300.38
2022-08-18T19:48:58.290Z,101303.31
2022-08-18T19:51:41.575Z,101298.13
2022-08-18T19:54:51.547Z,101302.66
2022-08-18T19:57:44.885Z,101306.47
2022-08-18T20:00:21.722Z,101299.41
2022-08-18T20:03:18.522Z,101308.34
2022-08-18T20:06:34.203Z,101306.63
2022-08-18T20:09:41.535Z,101310.41
2022-08-18T20:12:45.443Z,101306.97
2022-08-18T20:15:49.111Z,101300.88
2022-08-18T20:18:22.019Z,101307.97
2022-08-18T20:21:20.204Z,101306.22
2022-08-18T20:23:55.754Z,101310.13
2022-08-18T20:26:42.312Z,101306.84
2022-08-18T20:29:18.472Z,101309.81
2022-08-18T20:32:34.577Z,101316.34
2022-08-18T20:35:21.441Z,101304.09
2022-08-18T20:37:47.917Z,101312.28
2022-08-18T20:40:45.297Z,101314.22
2022-08-18T20:43:34.545Z,101311.81
2022-08-18T20:46:35.756Z,101314.72
2022-08-18T20:49:33.344Z,101311.41
2022-08-18T20:52:18.591Z,101309.88
2022-08-18T20:55:17.105Z,101319.75
2022-08-18T20:57:52.324Z,101323.53
2022-08-18T21:00:27.164Z,101325.50
2022-08-18T21:02:58.198Z,101316.69
2022-08-18T21:05:28.762Z,101319.53
2022-08-18T21:08:24.820Z,101312.69
2022-08-18T21:11:00.630Z,101298.88
2022-08-18T21:14:11.962Z,101316.69
2022-08-18T21:16:43.549Z,101316.00
2022-08-18T21:19:14.543Z,101316.97
2022-08-18T21:21:49.194Z,101324.34
2022-08-18T21:24:43.210Z,101326.28
2022-08-18T21:27:46.449Z,101328.16
2022-08-18T21:30:24.894Z,101320.34
2022-08-18T21:33:58.623Z,101324.91
2022-08-18T21:36:31.886Z,101331.34
2022-08-18T21:39:06.362Z,101328.59
2022-08-18T21:41:39.788Z,101327.69
2022-08-18T21:44:13.811Z,101337.47
2022-08-18T21:46:42.817Z,101340.19
2022-08-18T21:49:10.435Z,101329.59
2022-08-18T21:51:48.674Z,101336.81
2022-08-18T21:54:18.166Z,101336.97
2022-08-18T21:56:44.921Z,101334.47
2022-08-18T22:00:05.258Z,101335.50
2022-08-18T22:02:31.887Z,101343.69
2022-08-18T22:05:02.409Z,101341.22
2022-08-18T22:07:35.200Z,101342.31
2022-08-18T22:10:24.406Z,101345.06
2022-08-18T22:13:18.246Z,101345.28
2022-08-18T22:15:51.558Z,101333.84
2022-08-18T22:18:17.940Z,101328.63
2022-08-18T22:20:51.399Z,101329.63
2022-08-18T22:23:55.431Z,101326.13
2022-08-18T22:26:34.982Z,101332.38
2022-08-18T22:29:16.371Z,101329.88
2022-08-18T22:31:45.808Z,101331.81
2022-08-18T22:34:17.380Z,101333.66
2022-08-18T22:36:59.702Z,101336.25
2022-08-18T22:39:29.149Z,101339.00
2022-08-18T22:41:56.354Z,101333.78
2022-08-18T22:44:23.443Z,101341.00
2022-08-18T22:46:50.300Z,101333.13
2022-08-18T22:49:18.580Z,101333.28
2022-08-18T22:51:48.324Z,101328.00
2022-08-18T22:54:19.011Z,101328.22
2022-08-18T22:56:54.019Z,101326.56
2022-08-18T22:59:27.129Z,101322.19
2022-08-18T23:01:54.924Z,101325.88
2022-08-18T23:04:22.776Z,101330.44
2022-08-18T23:06:52.322Z,101335.78
2022-08-18T23:09:31.876Z,101333.97
2022-08-18T23:12:02.142Z,101332.19
2022-08-18T23:14:32.824Z,101329.59
2022-08-18T23:17:00.760Z,101331.31
2022-08-18T23:19:29.044Z,101334.03
2022-08-18T23:21:55.944Z,101337.69
2022-08-18T23:24:22.612Z,101328.00
2022-08-18T23:26:49.847Z,101328.06
2022-08-18T23:29:16.767Z,101336.00
2022-08-18T23:31:44.964Z,101334.31
2022-08-18T23:34:13.541Z,101340.53
2022-08-18T23:36:45.114Z,101342.34
2022-08-18T23:39:12.521Z,101353.09
2022-08-18T23:41:38.983Z,101352.28
2022-08-18T23:44:06.551Z,101344.31
2022-08-18T23:46:33.895Z,101355.00
2022-08-18T23:49:03.866Z,101349.78
2022-08-18T23:51:37.119Z,101339.16
2022-08-18T23:54:16.864Z,101338.34
2022-08-18T23:56:43.942Z,101347.22
2022-08-18T23:59:13.474Z,101337.53
